Time;durP1;ratioP1;P1;durP2;ratioP2;P2;SDS_P1;SDS_P2;PMS_P1;PMS_P2;Temp;Humidity;BMP_temperature;BMP_pressure;BME280_temperature;BME280_humidity;BME280_pressure;Samples;Min_cycle;Max_cycle;Signal;HPM_P1;HPM_P2
2023/07/09 00:03:02;;;;;;;5.40;4.43;;;;;;;26.01;41.65;100372.81;10357662;28;20041;-64
2023/07/09 00:08:03;;;;;;;4.88;3.70;;;;;;;25.97;41.71;100371.53;10357538;28;20419;-64
2023/07/09 00:13:05;;;;;;;10.90;4.82;;;;;;;25.89;42.18;100380.00;10357366;28;20563;-64
2023/07/09 00:18:08;;;;;;;5.30;4.57;;;;;;;25.87;42.37;100387.59;10361075;28;20049;-63
2023/07/09 00:23:13;;;;;;;4.25;3.72;;;;;;;25.82;41.79;100373.75;10355540;28;20057;-63
2023/07/09 00:28:17;;;;;;;7.22;4.40;;;;;;;25.76;41.84;100392.69;10360697;28;20053;-63
2023/07/09 00:33:18;;;;;;;5.40;3.88;;;;;;;25.73;41.68;100393.13;10367904;28;20052;-64
2023/07/09 00:38:22;;;;;;;5.85;4.57;;;;;;;25.66;42.51;100397.78;10362495;28;20752;-62
2023/07/09 00:43:23;;;;;;;4.93;4.22;;;;;;;25.61;43.04;100397.59;10368861;28;20052;-62
2023/07/09 00:48:26;;;;;;;4.93;3.65;;;;;;;25.54;43.44;100378.56;10367185;28;20045;-61
2023/07/09 00:53:31;;;;;;;5.22;3.92;;;;;;;25.50;44.00;100387.41;10366783;28;20053;-63
2023/07/09 00:58:35;;;;;;;5.28;3.90;;;;;;;25.50;43.61;100390.94;10363369;28;20053;-62
2023/07/09 01:03:47;;;;;;;4.13;3.50;;;;;;;25.38;43.63;100377.19;10360117;28;20541;-63
2023/07/09 01:08:53;;;;;;;5.63;3.70;;;;;;;25.47;43.86;100393.28;10360081;28;20141;-64
2023/07/09 01:13:57;;;;;;;5.35;3.97;;;;;;;25.43;43.89;100387.44;10366068;28;20054;-64
2023/07/09 01:19:00;;;;;;;5.88;3.90;;;;;;;25.43;43.53;100392.06;10358662;28;20592;-63
2023/07/09 01:24:19;;;;;;;4.50;3.60;;;;;;;25.41;43.99;100390.38;10359415;28;20619;-63
2023/07/09 01:29:21;;;;;;;6.20;4.13;;;;;;;25.37;43.56;100404.66;10357952;28;21493;-64
2023/07/09 01:34:24;;;;;;;5.80;3.95;;;;;;;25.33;44.32;100404.25;10362238;28;20527;-63
2023/07/09 01:39:28;;;;;;;4.30;3.55;;;;;;;25.29;44.37;100402.16;10366865;28;20080;-62
2023/07/09 01:44:29;;;;;;;7.50;4.13;;;;;;;25.19;44.16;100392.56;10366052;28;20076;-62
2023/07/09 01:49:32;;;;;;;4.13;3.35;;;;;;;25.21;44.25;100406.78;10415643;28;20076;-62
2023/07/09 01:54:37;;;;;;;5.65;3.75;;;;;;;25.16;44.34;100403.03;10360779;28;20163;-61
2023/07/09 01:59:41;;;;;;;4.85;3.30;;;;;;;25.09;43.85;100397.63;10362345;28;20132;-63
2023/07/09 02:04:43;;;;;;;4.20;3.63;;;;;;;25.09;43.97;100403.09;10358410;28;20057;-63
2023/07/09 02:09:44;;;;;;;4.15;3.75;;;;;;;25.06;44.48;100412.50;10356103;28;20045;-62
2023/07/09 02:14:46;;;;;;;4.45;3.40;;;;;;;25.05;44.77;100413.56;10355670;28;20657;-63
2023/07/09 02:19:47;;;;;;;5.05;3.53;;;;;;;25.00;44.78;100416.09;10357240;28;20191;-63
2023/07/09 02:24:49;;;;;;;5.57;4.10;;;;;;;24.87;44.98;100416.97;10358227;28;20047;-62
2023/07/09 02:29:50;;;;;;;4.93;4.32;;;;;;;24.74;45.78;100410.72;10359613;28;20073;-62
2023/07/09 02:34:53;;;;;;;7.95;4.22;;;;;;;24.75;46.23;100417.84;10356723;28;20041;-62
2023/07/09 02:39:54;;;;;;;4.30;3.90;;;;;;;24.62;45.98;100408.69;10352865;28;20611;-64
2023/07/09 02:44:56;;;;;;;5.05;4.32;;;;;;;24.65;46.02;100419.13;10355649;28;20053;-62
2023/07/09 02:49:57;;;;;;;6.95;4.43;;;;;;;24.61;46.34;100417.06;10353735;28;20232;-64
2023/07/09 02:54:58;;;;;;;6.80;5.13;;;;;;;24.56;46.56;100425.81;10359098;28;20061;-62
2023/07/09 03:00:00;;;;;;;5.45;4.25;;;;;;;24.43;46.59;100423.94;10358187;28;21404;-62
2023/07/09 03:05:01;;;;;;;6.15;4.75;;;;;;;24.43;47.12;100439.44;10353789;28;20722;-63
2023/07/09 03:10:03;;;;;;;6.32;4.82;;;;;;;24.38;47.50;100439.22;10355647;28;20464;-62
2023/07/09 03:15:05;;;;;;;5.90;4.78;;;;;;;24.30;47.71;100434.81;10352622;28;20099;-62
2023/07/09 03:20:07;;;;;;;6.18;4.75;;;;;;;24.23;48.52;100447.59;10351962;28;20041;-66
2023/07/09 03:25:09;;;;;;;5.57;4.53;;;;;;;24.15;48.43;100445.91;10355743;28;20050;-63
2023/07/09 03:30:11;;;;;;;6.07;4.05;;;;;;;24.10;48.55;100451.97;10356658;28;21075;-64
2023/07/09 03:35:12;;;;;;;5.32;4.18;;;;;;;23.95;48.45;100440.47;10354131;28;20045;-62
2023/07/09 03:40:21;;;;;;;5.82;4.60;;;;;;;23.91;48.84;100450.91;10358194;28;20585;-63
2023/07/09 03:45:23;;;;;;;5.25;4.70;;;;;;;23.98;48.79;100462.63;10354608;28;20544;-61
2023/07/09 03:50:25;;;;;;;6.30;4.78;;;;;;;23.94;49.15;100461.34;10354719;28;20133;-62
2023/07/09 03:55:27;;;;;;;8.93;5.05;;;;;;;23.94;48.83;100464.06;10355526;28;20250;-63
2023/07/09 04:00:29;;;;;;;7.38;4.38;;;;;;;23.86;49.80;100461.56;10361894;28;20042;-63
2023/07/09 04:05:30;;;;;;;6.53;4.37;;;;;;;23.78;49.96;100456.28;10359982;28;20057;-61
2023/07/09 04:10:32;;;;;;;5.53;4.28;;;;;;;23.87;50.41;100468.69;10361661;28;20045;-61
2023/07/09 04:15:34;;;;;;;5.93;4.93;;;;;;;23.85;50.93;100468.03;10363526;28;20057;-62
2023/07/09 04:20:36;;;;;;;6.18;4.70;;;;;;;23.81;51.50;100475.75;10362367;28;20759;-64
2023/07/09 04:25:37;;;;;;;8.15;5.25;;;;;;;23.82;51.33;100476.56;10366676;28;20065;-62
2023/07/09 04:30:48;;;;;;;6.85;5.53;;;;;;;23.72;52.38;100468.81;10367259;28;20050;-64
2023/07/09 04:35:50;;;;;;;8.90;5.35;;;;;;;23.80;52.75;100473.22;10411965;28;20072;-62
2023/07/09 04:40:51;;;;;;;9.15;5.10;;;;;;;23.84;52.71;100485.38;10384323;28;20050;-63
2023/07/09 04:45:52;;;;;;;5.97;5.38;;;;;;;23.82;52.62;100473.84;10362518;28;20164;-63
2023/07/09 04:50:54;;;;;;;8.13;5.43;;;;;;;23.81;54.01;100483.91;10363927;28;20054;-62
2023/07/09 04:55:55;;;;;;;5.97;4.80;;;;;;;23.72;53.92;100474.25;10360179;28;20711;-64
2023/07/09 05:00:58;;;;;;;6.28;5.57;;;;;;;23.76;54.07;100480.13;10365209;28;20106;-63
2023/07/09 05:05:59;;;;;;;7.80;6.33;;;;;;;23.73;54.85;100480.53;10363634;28;20061;-62
2023/07/09 05:11:01;;;;;;;6.68;5.78;;;;;;;23.64;55.19;100483.44;10358444;28;20041;-63
2023/07/09 05:16:03;;;;;;;7.80;5.85;;;;;;;23.69;55.21;100473.81;10363011;28;20131;-64
2023/07/09 05:21:05;;;;;;;6.93;5.60;;;;;;;23.76;55.10;100480.13;10359241;28;20068;-64
2023/07/09 05:26:06;;;;;;;7.07;5.45;;;;;;;23.79;54.47;100474.25;10360706;28;20042;-64
2023/07/09 05:31:08;;;;;;;6.53;5.05;;;;;;;23.71;54.46;100469.03;10357068;28;20085;-63
2023/07/09 05:36:15;;;;;;;6.55;5.32;;;;;;;23.83;55.52;100487.22;10361995;28;20063;-64
2023/07/09 05:41:17;;;;;;;5.95;5.22;;;;;;;23.81;54.81;100489.34;10364190;28;20049;-63
2023/07/09 05:46:19;;;;;;;6.78;5.15;;;;;;;23.83;54.83;100480.97;10357767;28;20158;-63
2023/07/09 05:51:24;;;;;;;9.48;6.07;;;;;;;23.90;54.27;100487.31;10361324;28;20046;-64
2023/07/09 05:56:25;;;;;;;6.25;4.88;;;;;;;23.85;54.47;100478.91;10362507;28;20551;-63
2023/07/09 06:01:27;;;;;;;6.22;5.68;;;;;;;23.95;54.13;100487.50;10358199;28;20049;-64
2023/07/09 06:06:28;;;;;;;7.45;6.00;;;;;;;24.07;54.99;100495.06;10361022;28;20057;-64
2023/07/09 06:11:30;;;;;;;5.88;5.10;;;;;;;24.02;54.61;100467.66;10356613;28;20165;-62
2023/07/09 06:16:31;;;;;;;7.60;5.05;;;;;;;24.28;53.68;100497.59;10359732;28;20046;-63
2023/07/09 06:21:33;;;;;;;8.57;6.10;;;;;;;24.39;53.47;100500.75;10352371;28;20060;-62
2023/07/09 06:26:34;;;;;;;5.95;5.07;;;;;;;24.49;53.13;100496.56;10371988;28;20132;-63
2023/07/09 06:31:37;;;;;;;7.65;5.15;;;;;;;24.51;53.74;100499.06;10350691;28;20312;-64
2023/07/09 06:36:38;;;;;;;7.05;6.00;;;;;;;24.66;53.21;100502.44;10348662;28;20080;-65
2023/07/09 06:41:41;;;;;;;;;;;;;;;24.79;53.02;100514.38;10350249;28;20084;-63
2023/07/09 06:46:44;;;;;;;7.43;4.85;;;;;;;24.87;52.90;100503.25;10347789;28;20227;-64
2023/07/09 06:51:46;;;;;;;6.57;5.60;;;;;;;24.98;53.19;100499.03;10349914;28;20049;-64
2023/07/09 06:56:48;;;;;;;5.93;5.10;;;;;;;25.14;51.98;100508.66;10352036;28;20046;-66
2023/07/09 07:01:49;;;;;;;5.88;5.15;;;;;;;25.29;51.97;100509.22;10350734;28;20095;-63
2023/07/09 07:06:50;;;;;;;8.13;5.88;;;;;;;25.41;51.06;100509.44;10351173;28;20116;-63
2023/07/09 07:11:52;;;;;;;5.28;4.78;;;;;;;25.43;51.17;100498.31;10353911;28;20068;-64
2023/07/09 07:16:53;;;;;;;7.05;6.07;;;;;;;25.61;50.59;100506.59;10354842;28;20057;-64
2023/07/09 07:21:54;;;;;;;6.20;5.10;;;;;;;25.71;50.25;100506.16;10383215;28;20057;-63
2023/07/09 07:26:56;;;;;;;6.72;5.28;;;;;;;25.69;49.49;100481.84;10389855;28;20127;-64
2023/07/09 07:31:57;;;;;;;7.57;4.82;;;;;;;25.96;48.50;100502.66;10355812;28;20045;-65
2023/07/09 07:36:59;;;;;;;6.78;4.50;;;;;;;26.05;48.59;100507.66;10356466;28;20765;-64
2023/07/09 07:42:00;;;;;;;6.57;4.40;;;;;;;26.30;48.45;100501.41;10355670;28;20401;-67
2023/07/09 07:47:03;;;;;;;6.25;5.53;;;;;;;26.43;47.76;100484.94;10359320;28;20059;-64
2023/07/09 07:52:05;;;;;;;5.97;4.47;;;;;;;26.77;47.70;100498.31;10354832;28;20077;-62
2023/07/09 07:57:08;;;;;;;6.15;4.40;;;;;;;27.02;46.31;100497.44;10358278;28;20065;-62
2023/07/09 08:02:13;;;;;;;5.30;4.40;;;;;;;27.22;45.43;100491.72;10356404;28;20514;-64
2023/07/09 08:07:14;;;;;;;7.47;4.90;;;;;;;27.25;44.76;100486.66;10357367;28;20050;-64
2023/07/09 08:12:16;;;;;;;6.57;4.65;;;;;;;27.50;44.59;100492.06;10357191;28;20061;-63
2023/07/09 08:17:18;;;;;;;7.13;4.40;;;;;;;27.65;44.62;100488.09;10361042;28;20052;-64
2023/07/09 08:22:22;;;;;;;5.15;4.40;;;;;;;27.83;43.22;100471.66;10360067;28;20132;-62
2023/07/09 08:27:23;;;;;;;6.25;4.32;;;;;;;28.06;44.08;100483.75;10365941;28;20050;-62
2023/07/09 08:32:25;;;;;;;7.32;5.00;;;;;;;28.28;43.59;100478.53;10359819;28;20116;-62
2023/07/09 08:37:26;;;;;;;5.10;3.80;;;;;;;28.46;43.97;100474.88;10360488;28;20061;-63
2023/07/09 08:42:52;;;;;;;6.55;4.68;;;;;;;28.63;42.18;100468.72;10355495;28;22343;-64
2023/07/09 08:48:15;;;;;;;5.57;4.15;;;;;;;28.84;43.40;100462.66;10356480;28;20539;-63
2023/07/09 08:53:28;;;;;;;6.15;3.72;;;;;;;29.03;42.33;100476.19;10349545;28;20061;-63
2023/07/09 08:58:31;;;;;;;4.45;4.05;;;;;;;29.28;41.38;100470.47;10350271;28;20807;-63
2023/07/09 09:03:41;;;;;;;5.90;4.13;;;;;;;29.41;41.71;100463.84;10358047;28;20045;-62
2023/07/09 09:09:02;;;;;;;8.82;4.65;;;;;;;29.69;40.23;100465.78;10356584;28;20527;-64
2023/07/09 09:14:16;;;;;;;6.67;4.13;;;;;;;29.69;39.63;100451.25;10356704;28;20834;-65
2023/07/09 09:19:23;;;;;;;5.15;3.50;;;;;;;29.71;40.29;100454.56;10358202;28;20057;-66
2023/07/09 09:24:31;;;;;;;4.97;3.63;;;;;;;30.04;39.61;100461.22;10356773;28;20077;-64
2023/07/09 09:29:33;;;;;;;5.13;3.80;;;;;;;30.39;38.90;100463.72;10354452;28;22000;-63
2023/07/09 09:34:34;;;;;;;7.60;3.97;;;;;;;30.53;38.51;100463.41;10353981;28;20993;-64
2023/07/09 09:39:38;;;;;;;4.30;3.77;;;;;;;30.84;38.29;100453.72;10358213;28;20299;-64
2023/07/09 09:44:44;;;;;;;4.18;3.42;;;;;;;31.06;37.27;100466.66;10363969;28;20292;-64
2023/07/09 09:49:45;;;;;;;5.15;3.33;;;;;;;31.19;37.36;100447.03;10352369;28;20815;-65
2023/07/09 09:55:01;;;;;;;3.85;3.08;;;;;;;31.46;37.07;100449.00;10358987;28;20053;-63
2023/07/09 10:00:06;;;;;;;4.88;3.42;;;;;;;31.70;36.86;100450.38;10355133;28;20073;-64
2023/07/09 10:05:13;;;;;;;5.45;3.72;;;;;;;31.92;35.73;100456.91;10378649;28;20057;-63
2023/07/09 10:10:22;;;;;;;4.75;2.90;;;;;;;31.93;34.92;100451.16;10368402;28;20056;-63
2023/07/09 10:15:24;;;;;;;3.70;2.95;;;;;;;32.10;36.15;100447.44;10349363;28;20141;-63
2023/07/09 10:20:50;;;;;;;3.90;3.40;;;;;;;32.24;35.35;100440.44;10347970;28;20049;-64
2023/07/09 10:25:58;;;;;;;6.32;3.28;;;;;;;32.33;34.76;100441.59;10349556;28;20060;-64
2023/07/09 10:31:25;;;;;;;3.65;3.22;;;;;;;32.52;35.00;100438.41;10346054;28;20057;-64
2023/07/09 10:36:36;;;;;;;4.47;3.17;;;;;;;32.83;34.63;100424.84;10344528;28;20057;-64
2023/07/09 10:41:38;;;;;;;3.47;3.10;;;;;;;33.16;34.45;100425.53;10345439;28;20084;-65
2023/07/09 10:46:45;;;;;;;3.28;2.97;;;;;;;33.28;33.97;100410.47;10340726;28;20049;-64
2023/07/09 10:52:01;;;;;;;5.25;3.40;;;;;;;33.45;32.79;100412.97;10345948;28;20493;-65
2023/07/09 10:57:27;;;;;;;5.40;3.10;;;;;;;33.65;32.50;100394.78;10349740;28;20046;-64
2023/07/09 11:02:32;;;;;;;3.28;2.90;;;;;;;33.76;33.07;100390.13;10344030;28;20547;-63
2023/07/09 11:07:42;;;;;;;4.93;3.55;;;;;;;33.87;32.38;100371.63;10347364;28;20049;-64
2023/07/09 11:12:50;;;;;;;5.28;3.47;;;;;;;34.15;32.02;100386.81;10342338;28;21013;-64
2023/07/09 11:17:52;;;;;;;3.30;2.95;;;;;;;34.24;31.95;100376.03;10344582;28;20088;-64
2023/07/09 11:23:01;;;;;;;3.67;2.88;;;;;;;34.39;31.27;100387.06;10343914;28;20060;-64
2023/07/09 11:28:06;;;;;;;3.30;2.72;;;;;;;34.46;30.28;100371.03;10336623;28;20057;-64
2023/07/09 11:33:18;;;;;;;4.80;3.22;;;;;;;34.53;30.11;100359.69;10347446;28;20077;-65
2023/07/09 11:38:25;;;;;;;5.63;3.22;;;;;;;34.57;29.42;100376.53;10344960;28;20049;-67
2023/07/09 11:43:35;;;;;;;5.30;3.28;;;;;;;34.69;28.85;100363.22;10343772;28;20599;-66
2023/07/09 11:48:40;;;;;;;4.10;2.67;;;;;;;34.61;28.29;100361.88;10340346;28;20064;-63
2023/07/09 11:53:49;;;;;;;3.47;2.50;;;;;;;34.64;28.40;100357.72;10347390;28;20176;-63
2023/07/09 11:58:52;;;;;;;3.92;2.92;;;;;;;34.70;28.45;100351.06;10350489;28;20559;-62
2023/07/09 12:03:57;;;;;;;5.82;3.15;;;;;;;34.73;28.57;100353.25;10349573;28;20053;-63
2023/07/09 12:08:59;;;;;;;4.82;2.47;;;;;;;34.79;28.46;100335.56;10349815;28;20624;-64
2023/07/09 12:14:08;;;;;;;3.00;2.47;;;;;;;34.94;28.06;100342.97;10341534;28;20077;-66
2023/07/09 12:19:12;;;;;;;3.70;3.15;;;;;;;34.96;28.09;100331.63;10352627;28;20100;-63
2023/07/09 12:24:20;;;;;;;4.97;2.75;;;;;;;35.07;26.43;100333.22;10355838;28;20640;-65
2023/07/09 12:29:28;;;;;;;5.93;2.80;;;;;;;35.01;27.13;100323.28;10372023;28;20053;-65
2023/07/09 12:34:32;;;;;;;3.17;2.80;;;;;;;35.02;27.07;100311.09;10375458;28;20057;-64
2023/07/09 12:39:37;;;;;;;4.20;3.03;;;;;;;35.15;27.37;100310.47;10368873;28;20053;-62
2023/07/09 12:44:39;;;;;;;3.38;2.50;;;;;;;35.28;27.39;100291.59;10371759;28;20649;-65
2023/07/09 12:49:43;;;;;;;5.32;2.65;;;;;;;35.19;27.37;100253.47;10363753;28;20077;-66
2023/07/09 12:55:05;;;;;;;3.05;2.75;;;;;;;35.22;26.87;100263.97;10356893;28;20052;-65
2023/07/09 13:00:14;;;;;;;6.13;3.60;;;;;;;35.25;25.91;100259.78;10354725;28;20666;-64
2023/07/09 13:05:21;;;;;;;6.20;2.83;;;;;;;35.35;26.48;100269.97;10353095;28;20072;-63
2023/07/09 13:10:31;;;;;;;2.60;2.40;;;;;;;35.42;26.08;100253.88;10355582;28;20626;-64
2023/07/09 13:15:42;;;;;;;4.25;2.85;;;;;;;35.17;24.58;100225.25;10354775;28;20479;-64
2023/07/09 13:20:46;;;;;;;6.78;2.72;;;;;;;35.31;24.88;100236.53;10355958;28;20267;-64
2023/07/09 13:25:48;;;;;;;4.97;2.60;;;;;;;35.44;25.47;100225.91;10365006;28;20273;-65
2023/07/09 13:30:51;;;;;;;4.03;3.63;;;;;;;35.46;24.75;100232.81;10360200;28;20643;-64
2023/07/09 13:35:53;;;;;;;3.53;2.65;;;;;;;35.43;25.72;100233.38;10356487;28;20050;-64
2023/07/09 13:40:59;;;;;;;4.82;3.17;;;;;;;35.38;25.06;100230.66;10351656;28;20050;-64
2023/07/09 13:46:06;;;;;;;5.90;2.63;;;;;;;35.31;25.18;100228.25;10352737;28;20049;-64
2023/07/09 13:51:21;;;;;;;4.18;3.00;;;;;;;35.21;25.36;100222.75;10346532;28;20163;-63
2023/07/09 13:56:23;;;;;;;4.20;3.00;;;;;;;35.20;25.57;100227.44;10354305;28;20097;-65
2023/07/09 14:01:25;;;;;;;5.20;2.80;;;;;;;35.27;26.38;100234.63;10352970;28;20080;-65
2023/07/09 14:06:26;;;;;;;3.90;2.38;;;;;;;35.18;26.93;100212.28;10349819;28;20068;-64
2023/07/09 14:11:28;;;;;;;3.28;2.97;;;;;;;35.15;26.63;100210.09;10351486;28;20559;-64
2023/07/09 14:16:29;;;;;;;3.63;2.60;;;;;;;35.16;25.54;100198.72;10351298;28;21419;-64
2023/07/09 14:21:31;;;;;;;5.10;2.72;;;;;;;35.05;24.61;100188.84;10351596;28;21668;-66
2023/07/09 14:26:35;;;;;;;5.88;3.10;;;;;;;35.16;24.58;100201.50;10349574;28;20052;-66
2023/07/09 14:31:37;;;;;;;5.03;2.92;;;;;;;35.18;24.84;100201.22;10355726;28;20080;-63
2023/07/09 14:36:38;;;;;;;3.67;2.95;;;;;;;35.10;25.33;100196.28;10353429;28;20048;-66
2023/07/09 14:41:40;;;;;;;5.65;3.33;;;;;;;35.01;25.67;100182.25;10353836;28;20077;-65
2023/07/09 14:46:42;;;;;;;8.40;3.88;;;;;;;34.92;25.21;100179.28;10351560;28;20208;-65
2023/07/09 14:51:44;;;;;;;5.07;3.13;;;;;;;34.90;25.60;100180.69;10350241;28;20396;-65
2023/07/09 14:56:46;;;;;;;5.32;3.75;;;;;;;34.83;25.67;100165.25;10352518;28;20045;-65
2023/07/09 15:01:48;;;;;;;4.88;3.00;;;;;;;34.83;26.09;100181.84;10352784;28;21109;-65
2023/07/09 15:06:51;;;;;;;5.72;2.90;;;;;;;34.80;26.49;100176.91;10349698;28;20452;-65
2023/07/09 15:11:59;;;;;;;3.30;2.88;;;;;;;34.66;26.54;100164.78;10348559;28;20660;-66
2023/07/09 15:17:00;;;;;;;6.70;3.58;;;;;;;34.73;26.70;100158.97;10349897;28;20160;-65
2023/07/09 15:22:02;;;;;;;3.88;3.47;;;;;;;34.70;26.76;100154.81;10351693;28;20084;-63
2023/07/09 15:27:04;;;;;;;5.80;3.10;;;;;;;34.65;26.35;100152.06;10352665;28;20140;-65
2023/07/09 15:32:06;;;;;;;4.15;3.17;;;;;;;34.59;25.62;100144.94;10347340;28;20124;-64
2023/07/09 15:37:14;;;;;;;3.67;2.83;;;;;;;34.60;26.21;100138.31;10352857;28;20128;-64
2023/07/09 15:42:16;;;;;;;5.60;3.00;;;;;;;34.58;26.29;100148.84;10349586;28;20550;-63
2023/07/09 15:47:20;;;;;;;5.93;2.80;;;;;;;34.53;26.62;100156.03;10354720;28;20145;-65
2023/07/09 15:52:22;;;;;;;4.22;2.90;;;;;;;34.48;26.23;100156.06;10359967;28;20045;-63
2023/07/09 15:57:23;;;;;;;;;;;;;;;34.43;26.17;100167.16;10358969;28;20056;-64
2023/07/09 16:02:42;;;;;;;5.20;2.78;;;;;;;34.27;26.26;100162.81;10359798;28;20708;-64
2023/07/09 16:07:45;;;;;;;3.95;2.67;;;;;;;34.28;25.52;100183.81;10356344;28;20545;-64
2023/07/09 16:12:49;;;;;;;4.63;2.80;;;;;;;34.20;26.18;100178.84;10362516;28;20073;-65
2023/07/09 16:17:52;;;;;;;5.45;3.03;;;;;;;34.17;25.86;100180.25;10354131;28;20061;-64
2023/07/09 16:22:57;;;;;;;4.25;2.70;;;;;;;34.16;26.30;100186.88;10356880;28;20054;-66
2023/07/09 16:27:59;;;;;;;4.53;3.00;;;;;;;34.03;26.18;100173.66;10355841;28;20155;-65
2023/07/09 16:33:02;;;;;;;4.95;2.90;;;;;;;34.11;26.58;100187.72;10360534;28;20589;-64
2023/07/09 16:38:04;;;;;;;2.83;2.40;;;;;;;34.09;26.49;100162.31;10355606;28;20061;-65
2023/07/09 16:43:12;;;;;;;;;;;;;;;34.14;26.64;100176.09;10358633;28;20141;-64
2023/07/09 16:48:20;;;;;;;4.65;2.70;;;;;;;34.12;27.00;100172.78;10354933;28;20346;-63
2023/07/09 16:53:22;;;;;;;4.60;2.58;;;;;;;34.03;27.00;100157.91;10353666;28;20054;-64
2023/07/09 16:58:30;;;;;;;5.35;3.20;;;;;;;34.00;27.08;100158.50;10358829;28;20059;-63
2023/07/09 17:03:32;;;;;;;8.80;3.20;;;;;;;33.93;27.36;100161.56;10379919;28;20068;-63
2023/07/09 17:08:34;;;;;;;6.30;2.88;;;;;;;33.90;27.26;100158.53;10360008;28;20057;-65
2023/07/09 17:13:35;;;;;;;;;;;;;;;33.73;27.41;100154.16;10367670;28;21039;-63
2023/07/09 17:18:37;;;;;;;4.32;2.80;;;;;;;33.53;27.85;100163.28;10364387;28;19932;-60
2023/07/09 17:23:39;;;;;;;4.70;2.47;;;;;;;33.23;28.98;100147.63;10358020;28;20046;-64
2023/07/09 17:28:40;;;;;;;5.40;2.90;;;;;;;33.10;29.73;100168.28;10354473;28;20534;-64
2023/07/09 17:33:42;;;;;;;8.93;3.45;;;;;;;32.83;31.48;100152.81;10362232;28;20065;-64
2023/07/09 17:38:44;;;;;;;5.10;2.83;;;;;;;32.67;31.53;100154.75;10360589;28;20050;-64
2023/07/09 17:43:46;;;;;;;8.35;3.13;;;;;;;32.59;32.27;100152.50;10360665;28;20058;-62
2023/07/09 17:48:47;;;;;;;9.73;3.70;;;;;;;32.21;32.98;100157.38;10356125;28;20049;-63
2023/07/09 17:53:49;;;;;;;;;;;;;;;31.95;33.67;100165.50;10355393;28;20491;-65
2023/07/09 17:58:50;;;;;;;10.20;3.73;;;;;;;31.81;33.87;100164.31;10354400;28;19933;-66
2023/07/09 18:03:52;;;;;;;9.25;3.63;;;;;;;31.64;34.12;100170.81;10356271;28;20059;-65
2023/07/09 18:08:54;;;;;;;6.35;2.38;;;;;;;31.60;34.30;100158.69;10360297;28;20057;-64
2023/07/09 18:13:55;;;;;;;3.97;2.45;;;;;;;31.48;34.21;100161.63;10329193;28;20286;-64
2023/07/09 18:19:02;;;;;;;6.15;2.67;;;;;;;31.48;34.70;100161.63;10341792;28;20054;-64
2023/07/09 18:24:04;;;;;;;6.80;2.80;;;;;;;31.47;34.71;100159.16;10344179;28;20601;-65
2023/07/09 18:29:08;;;;;;;4.40;2.50;;;;;;;31.14;35.39;100150.13;10343441;28;20183;-65
2023/07/09 18:34:10;;;;;;;8.52;2.72;;;;;;;31.24;35.83;100169.41;10361716;28;20049;-65
2023/07/09 18:39:11;;;;;;;4.82;2.47;;;;;;;30.98;35.83;100130.72;10344758;28;20119;-63
2023/07/09 18:44:19;;;;;;;7.03;2.88;;;;;;;31.08;35.76;100173.16;10344133;28;20041;-64
2023/07/09 18:49:20;;;;;;;5.45;2.42;;;;;;;30.92;36.09;100172.97;10346233;28;20056;-63
2023/07/09 18:54:22;;;;;;;5.28;2.90;;;;;;;30.84;36.64;100184.44;10342482;28;20045;-64
2023/07/09 18:59:24;;;;;;;4.85;2.28;;;;;;;30.67;36.79;100174.41;10347873;28;20197;-67
2023/07/09 19:04:31;;;;;;;;;;;;;;;30.57;37.49;100173.47;10346605;28;20064;-65
2023/07/09 19:09:32;;;;;;;3.65;2.45;;;;;;;30.41;37.16;100177.94;10344722;28;19983;-65
2023/07/09 19:14:35;;;;;;;4.00;2.90;;;;;;;30.36;37.86;100186.09;10351857;28;20049;-63
2023/07/09 19:19:36;;;;;;;11.07;4.45;;;;;;;30.30;38.00;100186.03;10348660;28;20053;-63
2023/07/09 19:24:40;;;;;;;4.60;3.65;;;;;;;30.20;37.97;100193.31;10348673;28;20045;-65
2023/07/09 19:29:42;;;;;;;4.57;4.18;;;;;;;30.02;38.66;100181.56;10354545;28;20053;-65
2023/07/09 19:34:44;;;;;;;6.15;3.83;;;;;;;29.96;39.18;100188.06;10365090;28;20758;-64
2023/07/09 19:39:46;;;;;;;4.37;3.70;;;;;;;29.88;39.66;100200.31;10362695;28;20045;-65
2023/07/09 19:44:52;;;;;;;5.38;2.72;;;;;;;29.85;39.36;100200.81;10359561;28;20076;-65
2023/07/09 19:49:56;;;;;;;4.10;2.92;;;;;;;29.79;39.86;100204.53;10364068;28;20049;-65
2023/07/09 19:54:59;;;;;;;4.30;2.40;;;;;;;29.71;40.09;100199.47;10358483;28;21619;-65
2023/07/09 20:00:00;;;;;;;5.13;2.70;;;;;;;29.61;40.09;100195.50;10357221;28;20049;-65
2023/07/09 20:05:04;;;;;;;6.23;2.63;;;;;;;29.58;40.72;100212.47;10363070;28;20500;-64
2023/07/09 20:10:05;;;;;;;6.07;2.90;;;;;;;29.56;40.56;100209.16;10360829;28;20085;-65
2023/07/09 20:15:26;;;;;;;5.03;3.30;;;;;;;29.47;41.09;100216.16;10363042;28;20055;-66
2023/07/09 20:20:27;;;;;;;5.30;2.42;;;;;;;29.38;41.20;100202.03;10362973;28;20045;-65
2023/07/09 20:25:30;;;;;;;3.30;3.00;;;;;;;29.41;41.08;100208.91;10367806;28;20191;-66
2023/07/09 20:30:31;;;;;;;;;;;;;;;29.40;41.43;100199.84;10367084;28;20127;-64
2023/07/09 20:35:32;;;;;;;4.13;2.88;;;;;;;29.18;41.23;100196.97;10367456;28;19933;-65
2023/07/09 20:40:34;;;;;;;6.75;3.40;;;;;;;29.22;41.71;100202.84;10361772;28;20068;-65
2023/07/09 20:45:36;;;;;;;3.65;2.67;;;;;;;29.19;41.49;100206.88;10365176;28;20049;-65
2023/07/09 20:50:38;;;;;;;4.47;2.43;;;;;;;29.10;41.87;100195.50;10376124;28;20890;-64
2023/07/09 20:55:41;;;;;;;5.40;4.57;;;;;;;29.05;42.31;100200.91;10357352;28;20151;-66
2023/07/09 21:00:44;;;;;;;5.35;4.40;;;;;;;29.02;42.11;100203.28;10363854;28;20057;-65
2023/07/09 21:05:48;;;;;;;6.03;4.10;;;;;;;28.96;42.48;100207.88;10363008;28;20504;-65
2023/07/09 21:10:50;;;;;;;7.15;4.15;;;;;;;28.84;42.87;100207.91;10360001;28;20056;-65
2023/07/09 21:15:57;;;;;;;;;;;;;;;28.62;43.22;100206.94;10362329;28;20060;-65
2023/07/09 21:20:58;;;;;;;5.60;3.65;;;;;;;28.39;43.01;100206.75;10361802;28;24764;-65
2023/07/09 21:26:00;;;;;;;5.27;4.10;;;;;;;28.36;43.79;100209.16;10353807;28;20057;-64
2023/07/09 21:31:02;;;;;;;5.87;3.67;;;;;;;28.34;42.66;100222.22;10359769;28;20115;-64
2023/07/09 21:36:04;;;;;;;4.65;3.85;;;;;;;28.30;42.93;100216.44;10360983;28;20183;-64
2023/07/09 21:41:06;;;;;;;5.93;3.88;;;;;;;28.18;42.95;100219.19;10353790;28;20053;-62
2023/07/09 21:46:24;;;;;;;3.88;3.38;;;;;;;28.22;42.77;100222.25;10359981;28;20053;-64
2023/07/09 21:51:26;;;;;;;6.43;3.40;;;;;;;28.31;43.17;100230.94;10355134;28;20042;-63
2023/07/09 21:56:27;;;;;;;5.18;3.75;;;;;;;28.28;42.89;100239.63;10361527;28;20144;-63
2023/07/09 22:01:29;;;;;;;4.90;3.97;;;;;;;28.24;43.15;100238.44;10359500;28;20049;-64
2023/07/09 22:06:30;;;;;;;4.77;3.87;;;;;;;28.18;43.32;100232.88;10357198;28;20053;-64
2023/07/09 22:11:33;;;;;;;4.53;3.77;;;;;;;28.17;43.48;100239.41;10354859;28;20142;-64
2023/07/09 22:16:35;;;;;;;5.05;4.10;;;;;;;28.15;43.57;100243.44;10358847;28;20068;-62
2023/07/09 22:21:37;;;;;;;;;;;;;;;28.13;44.42;100257.38;10359797;28;20057;-62
2023/07/09 22:26:39;;;;;;;5.63;3.38;;;;;;;27.99;44.58;100275.13;10358882;28;19924;-63
2023/07/09 22:31:42;;;;;;;3.92;3.50;;;;;;;27.95;44.47;100276.63;10356303;28;20045;-63
2023/07/09 22:36:44;;;;;;;5.40;3.88;;;;;;;27.80;45.26;100286.16;10361648;28;20045;-63
2023/07/09 22:41:46;;;;;;;5.45;3.50;;;;;;;27.60;45.22;100275.53;10365229;28;20167;-63
2023/07/09 22:46:47;;;;;;;4.35;3.90;;;;;;;27.67;45.15;100275.44;10361518;28;20703;-63
2023/07/09 22:51:49;;;;;;;4.60;2.97;;;;;;;27.69;44.94;100259.63;10359617;28;20148;-64
2023/07/09 22:56:50;;;;;;;4.68;3.35;;;;;;;27.83;45.45;100268.41;10355619;28;20068;-63
2023/07/09 23:01:52;;;;;;;4.85;3.60;;;;;;;27.84;44.79;100259.97;10355465;28;20050;-63
2023/07/09 23:06:53;;;;;;;3.65;3.33;;;;;;;27.75;44.98;100231.31;10355802;28;20139;-63
2023/07/09 23:11:55;;;;;;;4.93;3.50;;;;;;;27.79;45.36;100245.34;10357114;28;21023;-64
2023/07/09 23:16:56;;;;;;;6.30;3.97;;;;;;;27.74;45.06;100243.31;10358772;28;20520;-63
2023/07/09 23:22:03;;;;;;;4.80;3.65;;;;;;;27.73;45.58;100257.22;10356683;28;20050;-63